sensor_id;sensor_type;location;lat;lon;timestamp;P1;durP1;ratioP1;P2;durP2;ratioP2
76617;SDS011;65509;42.816;74.648;2023-11-18T00:00:07;43.22;;;19.67;;
76617;SDS011;65509;42.816;74.648;2023-11-18T00:02:37;26.13;;;10.88;;
76617;SDS011;65509;42.816;74.648;2023-11-18T00:05:03;25.58;;;9.80;;
76617;SDS011;65509;42.816;74.648;2023-11-18T00:07:29;13.35;;;4.60;;
76617;SDS011;65509;42.816;74.648;2023-11-18T00:09:54;11.00;;;2.70;;
76617;SDS011;65509;42.816;74.648;2023-11-18T00:12:20;12.68;;;1.92;;
76617;SDS011;65509;42.816;74.648;2023-11-18T00:14:45;15.30;;;2.00;;
76617;SDS011;65509;42.816;74.648;2023-11-18T00:17:11;21.25;;;1.98;;
76617;SDS011;65509;42.816;74.648;2023-11-18T00:19:37;34.72;;;3.35;;
76617;SDS011;65509;42.816;74.648;2023-11-18T00:22:03;25.90;;;3.05;;
76617;SDS011;65509;42.816;74.648;2023-11-18T00:24:28;18.65;;;2.83;;
76617;SDS011;65509;42.816;74.648;2023-11-18T00:26:53;17.05;;;3.03;;
76617;SDS011;65509;42.816;74.648;2023-11-18T00:29:20;14.63;;;2.38;;
76617;SDS011;65509;42.816;74.648;2023-11-18T00:31:46;27.85;;;3.28;;
76617;SDS011;65509;42.816;74.648;2023-11-18T00:34:11;29.08;;;3.72;;
76617;SDS011;65509;42.816;74.648;2023-11-18T00:36:36;16.67;;;2.63;;
76617;SDS011;65509;42.816;74.648;2023-11-18T00:39:02;14.43;;;2.80;;
76617;SDS011;65509;42.816;74.648;2023-11-18T00:41:29;5.90;;;1.98;;
76617;SDS011;65509;42.816;74.648;2023-11-18T00:43:54;13.68;;;2.08;;
76617;SDS011;65509;42.816;74.648;2023-11-18T00:46:21;13.18;;;2.45;;
76617;SDS011;65509;42.816;74.648;2023-11-18T00:48:47;15.20;;;2.50;;
76617;SDS011;65509;42.816;74.648;2023-11-18T00:51:12;17.45;;;2.72;;
76617;SDS011;65509;42.816;74.648;2023-11-18T00:53:38;9.73;;;2.15;;
76617;SDS011;65509;42.816;74.648;2023-11-18T00:56:04;16.80;;;2.72;;
76617;SDS011;65509;42.816;74.648;2023-11-18T00:58:33;14.68;;;2.13;;
76617;SDS011;65509;42.816;74.648;2023-11-18T01:01:01;13.75;;;2.10;;
76617;SDS011;65509;42.816;74.648;2023-11-18T01:03:27;13.30;;;2.10;;
76617;SDS011;65509;42.816;74.648;2023-11-18T01:05:53;13.32;;;2.40;;
76617;SDS011;65509;42.816;74.648;2023-11-18T01:08:18;23.77;;;3.13;;
76617;SDS011;65509;42.816;74.648;2023-11-18T01:10:44;16.83;;;2.95;;
76617;SDS011;65509;42.816;74.648;2023-11-18T01:13:09;19.75;;;3.03;;
76617;SDS011;65509;42.816;74.648;2023-11-18T01:15:35;17.30;;;2.42;;
76617;SDS011;65509;42.816;74.648;2023-11-18T01:18:00;25.52;;;2.08;;
76617;SDS011;65509;42.816;74.648;2023-11-18T01:20:26;119.82;;;6.47;;
76617;SDS011;65509;42.816;74.648;2023-11-18T01:22:51;27.63;;;2.35;;
76617;SDS011;65509;42.816;74.648;2023-11-18T01:25:17;24.65;;;3.10;;
76617;SDS011;65509;42.816;74.648;2023-11-18T01:27:43;16.27;;;2.25;;
76617;SDS011;65509;42.816;74.648;2023-11-18T01:30:11;40.08;;;3.88;;
76617;SDS011;65509;42.816;74.648;2023-11-18T01:32:37;15.50;;;2.17;;
76617;SDS011;65509;42.816;74.648;2023-11-18T01:35:05;24.23;;;2.42;;
76617;SDS011;65509;42.816;74.648;2023-11-18T01:37:31;13.07;;;1.98;;
76617;SDS011;65509;42.816;74.648;2023-11-18T01:39:57;8.32;;;1.80;;
76617;SDS011;65509;42.816;74.648;2023-11-18T01:42:22;11.50;;;1.73;;
76617;SDS011;65509;42.816;74.648;2023-11-18T01:44:48;16.38;;;2.35;;
76617;SDS011;65509;42.816;74.648;2023-11-18T01:47:13;21.50;;;2.47;;
76617;SDS011;65509;42.816;74.648;2023-11-18T01:49:39;14.02;;;1.88;;
76617;SDS011;65509;42.816;74.648;2023-11-18T01:52:09;12.55;;;2.22;;
76617;SDS011;65509;42.816;74.648;2023-11-18T01:54:38;11.52;;;1.95;;
76617;SDS011;65509;42.816;74.648;2023-11-18T01:57:04;10.73;;;2.20;;
76617;SDS011;65509;42.816;74.648;2023-11-18T01:59:31;13.90;;;2.50;;
76617;SDS011;65509;42.816;74.648;2023-11-18T02:01:58;15.27;;;2.63;;
76617;SDS011;65509;42.816;74.648;2023-11-18T02:04:24;10.82;;;1.98;;
76617;SDS011;65509;42.816;74.648;2023-11-18T02:06:50;12.07;;;2.00;;
76617;SDS011;65509;42.816;74.648;2023-11-18T02:09:16;19.73;;;2.88;;
76617;SDS011;65509;42.816;74.648;2023-11-18T02:14:39;12.18;;;2.65;;
76617;SDS011;65509;42.816;74.648;2023-11-18T02:17:04;18.02;;;3.22;;
76617;SDS011;65509;42.816;74.648;2023-11-18T02:19:30;14.27;;;3.38;;
76617;SDS011;65509;42.816;74.648;2023-11-18T02:21:56;12.20;;;3.25;;
76617;SDS011;65509;42.816;74.648;2023-11-18T02:24:26;22.52;;;4.28;;
76617;SDS011;65509;42.816;74.648;2023-11-18T02:26:53;24.30;;;3.53;;
76617;SDS011;65509;42.816;74.648;2023-11-18T02:29:18;17.20;;;2.85;;
76617;SDS011;65509;42.816;74.648;2023-11-18T02:31:43;17.45;;;2.92;;
76617;SDS011;65509;42.816;74.648;2023-11-18T02:34:14;18.45;;;2.80;;
76617;SDS011;65509;42.816;74.648;2023-11-18T02:36:43;12.65;;;2.45;;
76617;SDS011;65509;42.816;74.648;2023-11-18T02:39:25;16.00;;;3.17;;
76617;SDS011;65509;42.816;74.648;2023-11-18T02:41:54;10.93;;;2.70;;
76617;SDS011;65509;42.816;74.648;2023-11-18T02:44:21;20.48;;;4.30;;
76617;SDS011;65509;42.816;74.648;2023-11-18T02:46:48;11.00;;;2.78;;
76617;SDS011;65509;42.816;74.648;2023-11-18T02:49:14;20.40;;;3.58;;
76617;SDS011;65509;42.816;74.648;2023-11-18T02:51:39;17.15;;;3.00;;
76617;SDS011;65509;42.816;74.648;2023-11-18T02:54:05;17.38;;;3.15;;
76617;SDS011;65509;42.816;74.648;2023-11-18T02:56:38;9.35;;;2.50;;
76617;SDS011;65509;42.816;74.648;2023-11-18T02:59:04;12.68;;;2.63;;
76617;SDS011;65509;42.816;74.648;2023-11-18T03:01:33;9.60;;;2.60;;
76617;SDS011;65509;42.816;74.648;2023-11-18T03:04:01;16.77;;;2.95;;
76617;SDS011;65509;42.816;74.648;2023-11-18T03:06:27;17.08;;;2.70;;
76617;SDS011;65509;42.816;74.648;2023-11-18T03:08:58;9.35;;;2.50;;
76617;SDS011;65509;42.816;74.648;2023-11-18T03:11:28;11.48;;;2.55;;
76617;SDS011;65509;42.816;74.648;2023-11-18T03:13:56;18.13;;;3.28;;
76617;SDS011;65509;42.816;74.648;2023-11-18T03:16:22;27.95;;;4.80;;
76617;SDS011;65509;42.816;74.648;2023-11-18T03:18:47;25.55;;;5.00;;
76617;SDS011;65509;42.816;74.648;2023-11-18T03:21:13;35.80;;;5.47;;
76617;SDS011;65509;42.816;74.648;2023-11-18T03:23:39;22.05;;;4.13;;
76617;SDS011;65509;42.816;74.648;2023-11-18T03:26:10;32.38;;;5.35;;
76617;SDS011;65509;42.816;74.648;2023-11-18T03:28:36;28.80;;;4.28;;
76617;SDS011;65509;42.816;74.648;2023-11-18T03:31:05;40.60;;;5.57;;
76617;SDS011;65509;42.816;74.648;2023-11-18T03:33:31;38.28;;;4.55;;
76617;SDS011;65509;42.816;74.648;2023-11-18T03:35:56;26.58;;;3.55;;
76617;SDS011;65509;42.816;74.648;2023-11-18T03:38:22;43.22;;;5.20;;
76617;SDS011;65509;42.816;74.648;2023-11-18T03:40:49;36.92;;;4.13;;
76617;SDS011;65509;42.816;74.648;2023-11-18T03:43:14;37.95;;;4.90;;
76617;SDS011;65509;42.816;74.648;2023-11-18T03:45:42;42.85;;;4.25;;
76617;SDS011;65509;42.816;74.648;2023-11-18T03:48:08;40.08;;;4.45;;
76617;SDS011;65509;42.816;74.648;2023-11-18T03:50:33;40.97;;;4.57;;
76617;SDS011;65509;42.816;74.648;2023-11-18T03:52:59;39.55;;;5.07;;
76617;SDS011;65509;42.816;74.648;2023-11-18T03:55:24;50.45;;;5.97;;
76617;SDS011;65509;42.816;74.648;2023-11-18T03:57:53;32.47;;;4.50;;
76617;SDS011;65509;42.816;74.648;2023-11-18T04:00:19;39.85;;;5.45;;
76617;SDS011;65509;42.816;74.648;2023-11-18T04:02:45;35.20;;;4.85;;
76617;SDS011;65509;42.816;74.648;2023-11-18T04:05:11;34.63;;;4.72;;
76617;SDS011;65509;42.816;74.648;2023-11-18T04:07:38;42.95;;;5.53;;
76617;SDS011;65509;42.816;74.648;2023-11-18T04:10:07;60.78;;;5.55;;
76617;SDS011;65509;42.816;74.648;2023-11-18T04:12:35;31.70;;;3.70;;
76617;SDS011;65509;42.816;74.648;2023-11-18T04:15:00;37.50;;;5.10;;
76617;SDS011;65509;42.816;74.648;2023-11-18T04:17:26;45.97;;;5.43;;
76617;SDS011;65509;42.816;74.648;2023-11-18T04:19:53;34.53;;;4.45;;
76617;SDS011;65509;42.816;74.648;2023-11-18T04:22:21;43.25;;;5.65;;
76617;SDS011;65509;42.816;74.648;2023-11-18T04:24:47;31.35;;;4.60;;
76617;SDS011;65509;42.816;74.648;2023-11-18T04:27:12;39.47;;;5.00;;
76617;SDS011;65509;42.816;74.648;2023-11-18T04:29:38;28.33;;;3.80;;
76617;SDS011;65509;42.816;74.648;2023-11-18T04:32:05;43.22;;;5.57;;
76617;SDS011;65509;42.816;74.648;2023-11-18T04:34:31;32.58;;;4.55;;
76617;SDS011;65509;42.816;74.648;2023-11-18T04:36:58;33.22;;;4.93;;
76617;SDS011;65509;42.816;74.648;2023-11-18T04:39:23;42.08;;;5.53;;
76617;SDS011;65509;42.816;74.648;2023-11-18T04:41:50;48.92;;;5.32;;
76617;SDS011;65509;42.816;74.648;2023-11-18T04:44:16;48.95;;;6.57;;
76617;SDS011;65509;42.816;74.648;2023-11-18T04:46:41;26.15;;;4.65;;
76617;SDS011;65509;42.816;74.648;2023-11-18T04:49:07;60.95;;;7.10;;
76617;SDS011;65509;42.816;74.648;2023-11-18T04:51:33;44.22;;;5.60;;
76617;SDS011;65509;42.816;74.648;2023-11-18T04:53:58;50.65;;;6.53;;
76617;SDS011;65509;42.816;74.648;2023-11-18T04:56:24;39.15;;;5.68;;
76617;SDS011;65509;42.816;74.648;2023-11-18T04:58:49;30.50;;;4.78;;
76617;SDS011;65509;42.816;74.648;2023-11-18T05:01:15;28.02;;;4.32;;
76617;SDS011;65509;42.816;74.648;2023-11-18T05:03:41;26.73;;;4.75;;
76617;SDS011;65509;42.816;74.648;2023-11-18T05:06:06;35.85;;;5.45;;
76617;SDS011;65509;42.816;74.648;2023-11-18T05:08:33;50.97;;;7.05;;
76617;SDS011;65509;42.816;74.648;2023-11-18T05:10:58;29.40;;;4.35;;
76617;SDS011;65509;42.816;74.648;2023-11-18T05:13:24;41.88;;;5.60;;
76617;SDS011;65509;42.816;74.648;2023-11-18T05:15:51;34.28;;;4.75;;
76617;SDS011;65509;42.816;74.648;2023-11-18T05:18:19;24.27;;;4.15;;
76617;SDS011;65509;42.816;74.648;2023-11-18T05:20:45;39.22;;;5.80;;
76617;SDS011;65509;42.816;74.648;2023-11-18T05:23:10;46.35;;;10.10;;
76617;SDS011;65509;42.816;74.648;2023-11-18T05:25:39;22.85;;;7.70;;
76617;SDS011;65509;42.816;74.648;2023-11-18T05:28:05;38.47;;;10.55;;
76617;SDS011;65509;42.816;74.648;2023-11-18T05:30:34;46.10;;;9.15;;
76617;SDS011;65509;42.816;74.648;2023-11-18T05:33:01;34.03;;;7.15;;
76617;SDS011;65509;42.816;74.648;2023-11-18T05:35:29;36.67;;;7.78;;
76617;SDS011;65509;42.816;74.648;2023-11-18T05:37:57;40.92;;;9.60;;
76617;SDS011;65509;42.816;74.648;2023-11-18T05:40:23;41.13;;;10.43;;
76617;SDS011;65509;42.816;74.648;2023-11-18T05:42:50;32.00;;;7.45;;
76617;SDS011;65509;42.816;74.648;2023-11-18T05:45:17;43.53;;;9.98;;
76617;SDS011;65509;42.816;74.648;2023-11-18T05:47:55;39.25;;;11.45;;
76617;SDS011;65509;42.816;74.648;2023-11-18T05:50:22;48.20;;;13.85;;
76617;SDS011;65509;42.816;74.648;2023-11-18T05:52:50;41.50;;;12.65;;
76617;SDS011;65509;42.816;74.648;2023-11-18T05:55:15;28.65;;;8.00;;
76617;SDS011;65509;42.816;74.648;2023-11-18T05:57:41;34.05;;;7.05;;
76617;SDS011;65509;42.816;74.648;2023-11-18T06:00:11;27.13;;;6.63;;
76617;SDS011;65509;42.816;74.648;2023-11-18T06:02:41;34.25;;;7.15;;
76617;SDS011;65509;42.816;74.648;2023-11-18T06:05:06;36.05;;;8.23;;
76617;SDS011;65509;42.816;74.648;2023-11-18T06:07:32;42.72;;;13.82;;
76617;SDS011;65509;42.816;74.648;2023-11-18T06:09:59;46.33;;;13.73;;
76617;SDS011;65509;42.816;74.648;2023-11-18T06:12:25;46.00;;;11.48;;
76617;SDS011;65509;42.816;74.648;2023-11-18T06:14:52;45.70;;;11.02;;
76617;SDS011;65509;42.816;74.648;2023-11-18T06:17:17;32.60;;;9.13;;
76617;SDS011;65509;42.816;74.648;2023-11-18T06:19:44;36.53;;;7.70;;
76617;SDS011;65509;42.816;74.648;2023-11-18T06:22:09;31.73;;;6.05;;
76617;SDS011;65509;42.816;74.648;2023-11-18T06:24:35;51.72;;;9.35;;
76617;SDS011;65509;42.816;74.648;2023-11-18T06:27:01;36.47;;;8.60;;
76617;SDS011;65509;42.816;74.648;2023-11-18T06:29:26;49.28;;;9.25;;
76617;SDS011;65509;42.816;74.648;2023-11-18T06:31:54;53.65;;;10.45;;
76617;SDS011;65509;42.816;74.648;2023-11-18T06:34:20;39.33;;;8.85;;
76617;SDS011;65509;42.816;74.648;2023-11-18T06:36:48;44.17;;;9.43;;
76617;SDS011;65509;42.816;74.648;2023-11-18T06:39:13;45.65;;;10.32;;
76617;SDS011;65509;42.816;74.648;2023-11-18T06:41:39;36.97;;;8.35;;
76617;SDS011;65509;42.816;74.648;2023-11-18T06:44:14;29.13;;;8.02;;
76617;SDS011;65509;42.816;74.648;2023-11-18T06:46:43;32.67;;;6.72;;
76617;SDS011;65509;42.816;74.648;2023-11-18T06:49:09;33.30;;;7.75;;
76617;SDS011;65509;42.816;74.648;2023-11-18T06:51:40;39.53;;;8.75;;
76617;SDS011;65509;42.816;74.648;2023-11-18T06:54:06;33.78;;;7.22;;
76617;SDS011;65509;42.816;74.648;2023-11-18T06:56:38;36.80;;;7.25;;
76617;SDS011;65509;42.816;74.648;2023-11-18T06:59:05;23.90;;;5.57;;
76617;SDS011;65509;42.816;74.648;2023-11-18T07:01:31;29.92;;;6.18;;
76617;SDS011;65509;42.816;74.648;2023-11-18T07:03:58;30.45;;;6.57;;
76617;SDS011;65509;42.816;74.648;2023-11-18T07:06:23;32.28;;;6.72;;
76617;SDS011;65509;42.816;74.648;2023-11-18T07:08:52;33.92;;;6.45;;
76617;SDS011;65509;42.816;74.648;2023-11-18T07:11:18;25.75;;;5.43;;
76617;SDS011;65509;42.816;74.648;2023-11-18T07:13:44;34.13;;;6.22;;
76617;SDS011;65509;42.816;74.648;2023-11-18T07:16:10;28.48;;;6.03;;
76617;SDS011;65509;42.816;74.648;2023-11-18T07:18:35;47.55;;;8.85;;
76617;SDS011;65509;42.816;74.648;2023-11-18T07:21:04;36.47;;;9.10;;
76617;SDS011;65509;42.816;74.648;2023-11-18T07:23:30;39.03;;;7.78;;
76617;SDS011;65509;42.816;74.648;2023-11-18T07:25:56;25.90;;;6.07;;
76617;SDS011;65509;42.816;74.648;2023-11-18T07:28:23;32.25;;;6.40;;
76617;SDS011;65509;42.816;74.648;2023-11-18T07:30:51;33.25;;;5.40;;
76617;SDS011;65509;42.816;74.648;2023-11-18T07:33:17;32.75;;;5.57;;
76617;SDS011;65509;42.816;74.648;2023-11-18T07:35:44;27.33;;;4.68;;
76617;SDS011;65509;42.816;74.648;2023-11-18T07:38:11;24.45;;;4.63;;
76617;SDS011;65509;42.816;74.648;2023-11-18T07:40:39;35.47;;;6.03;;
76617;SDS011;65509;42.816;74.648;2023-11-18T07:43:11;39.40;;;6.13;;
76617;SDS011;65509;42.816;74.648;2023-11-18T07:45:37;40.65;;;6.40;;
76617;SDS011;65509;42.816;74.648;2023-11-18T07:48:04;30.02;;;5.80;;
76617;SDS011;65509;42.816;74.648;2023-11-18T07:50:35;31.05;;;6.38;;
76617;SDS011;65509;42.816;74.648;2023-11-18T07:53:00;25.05;;;5.15;;
76617;SDS011;65509;42.816;74.648;2023-11-18T07:55:27;46.58;;;7.25;;
76617;SDS011;65509;42.816;74.648;2023-11-18T07:57:53;36.10;;;6.93;;
76617;SDS011;65509;42.816;74.648;2023-11-18T08:00:19;30.58;;;6.53;;
76617;SDS011;65509;42.816;74.648;2023-11-18T08:02:47;33.83;;;7.43;;
76617;SDS011;65509;42.816;74.648;2023-11-18T08:05:13;36.00;;;7.07;;
76617;SDS011;65509;42.816;74.648;2023-11-18T08:07:40;51.45;;;9.52;;
76617;SDS011;65509;42.816;74.648;2023-11-18T08:10:06;37.40;;;8.15;;
76617;SDS011;65509;42.816;74.648;2023-11-18T08:12:32;41.33;;;7.95;;
76617;SDS011;65509;42.816;74.648;2023-11-18T08:14:57;45.88;;;9.73;;
76617;SDS011;65509;42.816;74.648;2023-11-18T08:17:24;33.05;;;8.52;;
76617;SDS011;65509;42.816;74.648;2023-11-18T08:19:51;36.45;;;9.05;;
76617;SDS011;65509;42.816;74.648;2023-11-18T08:22:17;34.58;;;9.27;;
76617;SDS011;65509;42.816;74.648;2023-11-18T08:24:44;33.53;;;9.40;;
76617;SDS011;65509;42.816;74.648;2023-11-18T08:27:11;30.23;;;8.63;;
76617;SDS011;65509;42.816;74.648;2023-11-18T08:29:36;39.75;;;9.35;;
76617;SDS011;65509;42.816;74.648;2023-11-18T08:32:04;35.13;;;10.40;;
76617;SDS011;65509;42.816;74.648;2023-11-18T08:34:30;39.80;;;11.13;;
76617;SDS011;65509;42.816;74.648;2023-11-18T08:36:55;30.65;;;11.13;;
76617;SDS011;65509;42.816;74.648;2023-11-18T08:39:21;38.50;;;13.15;;
76617;SDS011;65509;42.816;74.648;2023-11-18T08:41:50;50.42;;;15.38;;
76617;SDS011;65509;42.816;74.648;2023-11-18T08:44:16;44.47;;;15.30;;
76617;SDS011;65509;42.816;74.648;2023-11-18T08:46:43;64.35;;;22.65;;
76617;SDS011;65509;42.816;74.648;2023-11-18T08:49:08;64.97;;;27.92;;
76617;SDS011;65509;42.816;74.648;2023-11-18T08:51:39;54.42;;;22.00;;
76617;SDS011;65509;42.816;74.648;2023-11-18T08:54:09;41.47;;;14.35;;
76617;SDS011;65509;42.816;74.648;2023-11-18T08:56:53;31.80;;;10.30;;
76617;SDS011;65509;42.816;74.648;2023-11-18T08:59:20;29.38;;;9.82;;
76617;SDS011;65509;42.816;74.648;2023-11-18T09:01:55;34.70;;;10.07;;
76617;SDS011;65509;42.816;74.648;2023-11-18T09:04:22;64.00;;;16.55;;
76617;SDS011;65509;42.816;74.648;2023-11-18T09:06:47;75.22;;;31.80;;
76617;SDS011;65509;42.816;74.648;2023-11-18T09:09:13;103.65;;;42.60;;
76617;SDS011;65509;42.816;74.648;2023-11-18T09:11:41;92.70;;;32.33;;
76617;SDS011;65509;42.816;74.648;2023-11-18T09:14:07;83.22;;;33.25;;
76617;SDS011;65509;42.816;74.648;2023-11-18T09:16:33;96.65;;;38.47;;
76617;SDS011;65509;42.816;74.648;2023-11-18T09:19:04;95.28;;;42.78;;
76617;SDS011;65509;42.816;74.648;2023-11-18T09:21:31;91.07;;;40.90;;
76617;SDS011;65509;42.816;74.648;2023-11-18T09:24:00;111.18;;;45.50;;
76617;SDS011;65509;42.816;74.648;2023-11-18T09:26:29;106.82;;;41.35;;
76617;SDS011;65509;42.816;74.648;2023-11-18T09:28:55;72.25;;;29.00;;
76617;SDS011;65509;42.816;74.648;2023-11-18T09:31:20;72.07;;;22.25;;
76617;SDS011;65509;42.816;74.648;2023-11-18T09:33:46;59.88;;;18.45;;
76617;SDS011;65509;42.816;74.648;2023-11-18T09:36:18;58.88;;;20.45;;
76617;SDS011;65509;42.816;74.648;2023-11-18T09:38:44;66.45;;;19.73;;
76617;SDS011;65509;42.816;74.648;2023-11-18T09:41:12;72.18;;;18.70;;
76617;SDS011;65509;42.816;74.648;2023-11-18T09:43:39;47.95;;;16.83;;
76617;SDS011;65509;42.816;74.648;2023-11-18T09:46:24;58.38;;;16.67;;
76617;SDS011;65509;42.816;74.648;2023-11-18T09:49:15;53.80;;;15.85;;
76617;SDS011;65509;42.816;74.648;2023-11-18T09:51:41;66.88;;;17.80;;
76617;SDS011;65509;42.816;74.648;2023-11-18T09:54:26;56.65;;;20.92;;
76617;SDS011;65509;42.816;74.648;2023-11-18T09:57:04;68.07;;;19.35;;
76617;SDS011;65509;42.816;74.648;2023-11-18T10:02:10;57.92;;;15.30;;
76617;SDS011;65509;42.816;74.648;2023-11-18T10:04:36;54.10;;;14.00;;
76617;SDS011;65509;42.816;74.648;2023-11-18T10:07:02;48.45;;;13.77;;
76617;SDS011;65509;42.816;74.648;2023-11-18T10:09:28;50.15;;;13.65;;
76617;SDS011;65509;42.816;74.648;2023-11-18T10:12:02;50.28;;;14.13;;
76617;SDS011;65509;42.816;74.648;2023-11-18T10:14:34;45.85;;;12.68;;
76617;SDS011;65509;42.816;74.648;2023-11-18T10:17:03;48.08;;;11.57;;
76617;SDS011;65509;42.816;74.648;2023-11-18T10:19:48;60.33;;;13.23;;
76617;SDS011;65509;42.816;74.648;2023-11-18T10:22:21;59.95;;;13.07;;
76617;SDS011;65509;42.816;74.648;2023-11-18T10:24:47;49.88;;;11.38;;
76617;SDS011;65509;42.816;74.648;2023-11-18T10:27:14;43.40;;;10.55;;
76617;SDS011;65509;42.816;74.648;2023-11-18T10:29:40;57.65;;;11.35;;
76617;SDS011;65509;42.816;74.648;2023-11-18T10:32:06;41.22;;;9.93;;
76617;SDS011;65509;42.816;74.648;2023-11-18T10:34:45;53.00;;;12.60;;
76617;SDS011;65509;42.816;74.648;2023-11-18T10:37:10;79.88;;;30.13;;
76617;SDS011;65509;42.816;74.648;2023-11-18T10:39:36;96.25;;;31.38;;
76617;SDS011;65509;42.816;74.648;2023-11-18T10:42:02;79.32;;;36.90;;
76617;SDS011;65509;42.816;74.648;2023-11-18T10:44:28;85.47;;;26.10;;
76617;SDS011;65509;42.816;74.648;2023-11-18T10:46:54;79.95;;;27.50;;
76617;SDS011;65509;42.816;74.648;2023-11-18T10:49:23;84.18;;;26.13;;
76617;SDS011;65509;42.816;74.648;2023-11-18T10:51:52;96.47;;;30.35;;
76617;SDS011;65509;42.816;74.648;2023-11-18T10:54:18;76.60;;;28.30;;
76617;SDS011;65509;42.816;74.648;2023-11-18T10:56:48;72.80;;;28.45;;
76617;SDS011;65509;42.816;74.648;2023-11-18T10:59:13;95.82;;;40.33;;
76617;SDS011;65509;42.816;74.648;2023-11-18T11:01:42;111.32;;;45.13;;
76617;SDS011;65509;42.816;74.648;2023-11-18T11:04:08;122.00;;;52.50;;
76617;SDS011;65509;42.816;74.648;2023-11-18T11:06:36;70.43;;;28.33;;
76617;SDS011;65509;42.816;74.648;2023-11-18T11:09:07;84.72;;;27.80;;
76617;SDS011;65509;42.816;74.648;2023-11-18T11:11:40;78.00;;;24.65;;
76617;SDS011;65509;42.816;74.648;2023-11-18T11:14:10;83.70;;;28.70;;
76617;SDS011;65509;42.816;74.648;2023-11-18T11:16:40;102.80;;;36.13;;
76617;SDS011;65509;42.816;74.648;2023-11-18T11:19:33;106.88;;;35.38;;
76617;SDS011;65509;42.816;74.648;2023-11-18T11:22:00;92.57;;;32.00;;
76617;SDS011;65509;42.816;74.648;2023-11-18T11:30:44;78.53;;;30.08;;
76617;SDS011;65509;42.816;74.648;2023-11-18T11:32:52;85.88;;;28.13;;
76617;SDS011;65509;42.816;74.648;2023-11-18T11:35:22;79.90;;;29.48;;
76617;SDS011;65509;42.816;74.648;2023-11-18T11:37:48;78.95;;;27.20;;
76617;SDS011;65509;42.816;74.648;2023-11-18T11:40:14;66.68;;;24.90;;
76617;SDS011;65509;42.816;74.648;2023-11-18T11:42:47;82.45;;;27.50;;
76617;SDS011;65509;42.816;74.648;2023-11-18T11:45:15;73.63;;;25.42;;
76617;SDS011;65509;42.816;74.648;2023-11-18T11:47:48;77.68;;;24.55;;
76617;SDS011;65509;42.816;74.648;2023-11-18T11:50:28;82.43;;;25.75;;
76617;SDS011;65509;42.816;74.648;2023-11-18T11:53:00;62.50;;;23.73;;
76617;SDS011;65509;42.816;74.648;2023-11-18T11:55:40;63.88;;;23.38;;
76617;SDS011;65509;42.816;74.648;2023-11-18T11:58:25;58.75;;;24.15;;
76617;SDS011;65509;42.816;74.648;2023-11-18T12:00:51;73.00;;;24.30;;
76617;SDS011;65509;42.816;74.648;2023-11-18T12:03:21;67.03;;;24.92;;
76617;SDS011;65509;42.816;74.648;2023-11-18T12:05:47;66.03;;;23.42;;
76617;SDS011;65509;42.816;74.648;2023-11-18T12:08:14;51.05;;;20.63;;
76617;SDS011;65509;42.816;74.648;2023-11-18T12:10:39;70.45;;;21.08;;
76617;SDS011;65509;42.816;74.648;2023-11-18T12:13:11;60.67;;;21.08;;
76617;SDS011;65509;42.816;74.648;2023-11-18T12:15:47;59.45;;;20.88;;
76617;SDS011;65509;42.816;74.648;2023-11-18T12:18:13;46.88;;;18.77;;
76617;SDS011;65509;42.816;74.648;2023-11-18T12:20:40;50.92;;;17.77;;
76617;SDS011;65509;42.816;74.648;2023-11-18T12:23:07;45.20;;;16.35;;
76617;SDS011;65509;42.816;74.648;2023-11-18T12:25:48;61.70;;;16.65;;
76617;SDS011;65509;42.816;74.648;2023-11-18T12:31:10;43.90;;;15.88;;
76617;SDS011;65509;42.816;74.648;2023-11-18T12:42:03;47.78;;;15.80;;
76617;SDS011;65509;42.816;74.648;2023-11-18T12:44:35;45.83;;;14.10;;
76617;SDS011;65509;42.816;74.648;2023-11-18T12:47:06;42.78;;;14.45;;
76617;SDS011;65509;42.816;74.648;2023-11-18T12:49:40;54.05;;;15.10;;
76617;SDS011;65509;42.816;74.648;2023-11-18T12:52:06;52.60;;;14.10;;
76617;SDS011;65509;42.816;74.648;2023-11-18T12:54:33;53.80;;;15.85;;
76617;SDS011;65509;42.816;74.648;2023-11-18T12:57:02;54.50;;;15.30;;
76617;SDS011;65509;42.816;74.648;2023-11-18T12:59:28;39.10;;;13.10;;
76617;SDS011;65509;42.816;74.648;2023-11-18T13:01:55;47.38;;;13.38;;
76617;SDS011;65509;42.816;74.648;2023-11-18T13:04:23;44.33;;;13.80;;
76617;SDS011;65509;42.816;74.648;2023-11-18T13:06:49;54.47;;;13.48;;
76617;SDS011;65509;42.816;74.648;2023-11-18T13:09:16;38.85;;;15.15;;
76617;SDS011;65509;42.816;74.648;2023-11-18T13:11:52;51.95;;;15.38;;
76617;SDS011;65509;42.816;74.648;2023-11-18T13:14:17;43.50;;;15.00;;
76617;SDS011;65509;42.816;74.648;2023-11-18T13:16:44;61.63;;;17.98;;
76617;SDS011;65509;42.816;74.648;2023-11-18T13:19:11;69.07;;;18.58;;
76617;SDS011;65509;42.816;74.648;2023-11-18T13:21:36;64.00;;;17.60;;
76617;SDS011;65509;42.816;74.648;2023-11-18T13:24:02;53.85;;;16.23;;
76617;SDS011;65509;42.816;74.648;2023-11-18T13:26:30;49.03;;;16.33;;
76617;SDS011;65509;42.816;74.648;2023-11-18T13:28:58;50.70;;;16.90;;
76617;SDS011;65509;42.816;74.648;2023-11-18T13:31:24;57.00;;;17.52;;
76617;SDS011;65509;42.816;74.648;2023-11-18T13:33:50;59.92;;;16.70;;
76617;SDS011;65509;42.816;74.648;2023-11-18T13:36:16;52.00;;;16.35;;
76617;SDS011;65509;42.816;74.648;2023-11-18T13:38:42;62.67;;;17.58;;
76617;SDS011;65509;42.816;74.648;2023-11-18T13:41:07;55.13;;;16.33;;
76617;SDS011;65509;42.816;74.648;2023-11-18T13:43:46;53.72;;;17.52;;
76617;SDS011;65509;42.816;74.648;2023-11-18T13:46:17;49.67;;;15.55;;
76617;SDS011;65509;42.816;74.648;2023-11-18T13:49:04;48.67;;;14.88;;
76617;SDS011;65509;42.816;74.648;2023-11-18T13:51:32;56.33;;;15.50;;
76617;SDS011;65509;42.816;74.648;2023-11-18T13:54:03;63.78;;;15.40;;
76617;SDS011;65509;42.816;74.648;2023-11-18T13:56:32;47.00;;;16.20;;
76617;SDS011;65509;42.816;74.648;2023-11-18T13:58:57;52.08;;;15.80;;
76617;SDS011;65509;42.816;74.648;2023-11-18T14:01:23;54.28;;;16.80;;
76617;SDS011;65509;42.816;74.648;2023-11-18T14:03:49;70.85;;;21.30;;
76617;SDS011;65509;42.816;74.648;2023-11-18T14:06:14;63.40;;;17.73;;
76617;SDS011;65509;42.816;74.648;2023-11-18T14:08:43;62.10;;;16.10;;
76617;SDS011;65509;42.816;74.648;2023-11-18T14:11:08;53.72;;;16.13;;
76617;SDS011;65509;42.816;74.648;2023-11-18T14:13:35;54.67;;;16.58;;
76617;SDS011;65509;42.816;74.648;2023-11-18T14:16:04;48.03;;;15.88;;
76617;SDS011;65509;42.816;74.648;2023-11-18T14:18:34;42.58;;;14.57;;
76617;SDS011;65509;42.816;74.648;2023-11-18T14:21:01;41.55;;;15.20;;
76617;SDS011;65509;42.816;74.648;2023-11-18T14:23:27;50.00;;;15.05;;
76617;SDS011;65509;42.816;74.648;2023-11-18T14:25:52;67.45;;;15.65;;
76617;SDS011;65509;42.816;74.648;2023-11-18T14:28:18;68.20;;;16.08;;
76617;SDS011;65509;42.816;74.648;2023-11-18T14:30:44;55.05;;;14.30;;
76617;SDS011;65509;42.816;74.648;2023-11-18T14:33:09;56.90;;;13.93;;
76617;SDS011;65509;42.816;74.648;2023-11-18T14:35:35;46.33;;;12.60;;
76617;SDS011;65509;42.816;74.648;2023-11-18T14:38:01;46.90;;;12.70;;
76617;SDS011;65509;42.816;74.648;2023-11-18T14:40:26;49.20;;;13.18;;